PWSweather.com
Personal Weather Stations
Station Observations
PICKERING
North Yorkshire, PickeringGB

North YorkshirePickeringGB

Lat: 54.2494, Lon: -0.7725

Elevation: 192

Station Type: Oregon Scientific WMR100

http://www.yorkshirewalker.co.uk/weather/

High Low Average
Temperature 45.9°F7.7°C 37.0°F2.8°C 42.3°F5.7°C
Dew Point 39.2°F4.0°C 32.0°F0.0°C 36.6°F2.6°C
Winds 4.2 mph 6.8 kmh Calm Calm 1.0 mph SW1.6 kmh SW
Wind Gusts 6.5 mph10.5 kmh -- 2.0 mph3.2 kmh
Humidity 81% 76% 78%
Pressure 30.21 in1023.0 mb 30.01 in1016.3 mb -
Precipitation 0.00 in0.0 mm - -
Hour Temp Dew Point Humidity Winds Wind Gusts Pressure Precip Precip Rate Daily Precip Total
12:00 AM 42.6°F5.9°C 37.4°F3.0°C 79% Calm Calm -- 30.18 in1022.0 mb 0.00 in0.0 mm 0.00 in0.0 mm 0.00 in0.0 mm
12:05 AM 42.8°F6.0°C 37.4°F3.0°C 79% Calm Calm -- 30.18 in1022.0 mb 0.00 in0.0 mm 0.00 in0.0 mm 0.00 in0.0 mm
12:10 AM 42.8°F6.0°C 37.4°F3.0°C 79% 0.3 mph W0.5 kmh W 1.3 mph2.1 kmh 30.18 in1022.0 mb 0.00 in0.0 mm 0.00 in0.0 mm 0.00 in0.0 mm
12:15 AM 42.8°F6.0°C 37.4°F3.0°C 79% 0.6 mph WSW1.0 kmh WSW 1.3 mph2.1 kmh 30.18 in1022.0 mb 0.00 in0.0 mm 0.00 in0.0 mm 0.00 in0.0 mm
12:20 AM 43.0°F6.1°C 37.4°F3.0°C 79% 0.4 mph W0.6 kmh W 1.3 mph2.1 kmh 30.18 in1022.0 mb 0.00 in0.0 mm 0.00 in0.0 mm 0.00 in0.0 mm
12:25 AM 43.0°F6.1°C 37.4°F3.0°C 79% 0.2 mph NW0.3 kmh NW 1.1 mph1.8 kmh 30.18 in1022.0 mb 0.00 in0.0 mm 0.00 in0.0 mm 0.00 in0.0 mm
12:30 AM 43.0°F6.1°C 37.4°F3.0°C 79% 0.2 mph E0.3 kmh E 1.3 mph2.1 kmh 30.18 in1022.0 mb 0.00 in0.0 mm 0.00 in0.0 mm 0.00 in0.0 mm
12:35 AM 43.0°F6.1°C 37.4°F3.0°C 79% 0.4 mph SE0.6 kmh SE 1.6 mph2.6 kmh 30.18 in1022.0 mb 0.00 in0.0 mm 0.00 in0.0 mm 0.00 in0.0 mm
12:40 AM 42.8°F6.0°C 37.4°F3.0°C 79% 0.5 mph SSE0.8 kmh SSE 1.6 mph2.6 kmh 30.18 in1022.0 mb 0.00 in0.0 mm 0.00 in0.0 mm 0.00 in0.0 mm
12:45 AM 42.8°F6.0°C 37.4°F3.0°C 79% 0.2 mph SSE0.3 kmh SSE 0.9 mph1.4 kmh 30.18 in1022.0 mb 0.00 in0.0 mm 0.00 in0.0 mm 0.00 in0.0 mm
12:50 AM 42.8°F6.0°C 37.4°F3.0°C 79% 0.4 mph ESE0.6 kmh ESE 2.0 mph3.2 kmh 30.18 in1022.0 mb 0.00 in0.0 mm 0.00 in0.0 mm 0.00 in0.0 mm
12:55 AM 42.8°F6.0°C 37.4°F3.0°C 79% 0.5 mph E0.8 kmh E 2.0 mph3.2 kmh 30.18 in1022.0 mb 0.00 in0.0 mm 0.00 in0.0 mm 0.00 in0.0 mm
01:00 AM 42.6°F5.9°C 37.4°F3.0°C 79% 0.4 mph E0.6 kmh E 2.0 mph3.2 kmh 30.18 in1022.0 mb 0.00 in0.0 mm 0.00 in0.0 mm 0.00 in0.0 mm
01:05 AM 42.6°F5.9°C 37.4°F3.0°C 79% 0.2 mph SE0.3 kmh SE 1.1 mph1.8 kmh 30.18 in1022.0 mb 0.00 in0.0 mm 0.00 in0.0 mm 0.00 in0.0 mm
01:10 AM 42.6°F5.9°C 37.4°F3.0°C 79% 0.4 mph E0.6 kmh E 2.2 mph3.5 kmh 30.18 in1022.0 mb 0.00 in0.0 mm 0.00 in0.0 mm 0.00 in0.0 mm
01:15 AM 42.8°F6.0°C 37.4°F3.0°C 79% 0.4 mph E0.6 kmh E 2.2 mph3.5 kmh 30.18 in1022.0 mb 0.00 in0.0 mm 0.00 in0.0 mm 0.00 in0.0 mm
01:20 AM 42.6°F5.9°C 37.4°F3.0°C 79% 0.3 mph S0.5 kmh S 1.1 mph1.8 kmh 30.18 in1022.0 mb 0.00 in0.0 mm 0.00 in0.0 mm 0.00 in0.0 mm
01:25 AM 42.6°F5.9°C 37.4°F3.0°C 79% 0.3 mph S0.5 kmh S 1.1 mph1.8 kmh 30.18 in1022.0 mb 0.00 in0.0 mm 0.00 in0.0 mm 0.00 in0.0 mm
01:30 AM 42.8°F6.0°C 37.4°F3.0°C 79% 0.2 mph NNW0.3 kmh NNW 1.1 mph1.8 kmh 30.18 in1022.0 mb 0.00 in0.0 mm 0.00 in0.0 mm 0.00 in0.0 mm
01:35 AM 43.0°F6.1°C 37.4°F3.0°C 79% 0.8 mph NNW1.3 kmh NNW 3.6 mph5.8 kmh 30.18 in1022.0 mb 0.00 in0.0 mm 0.00 in0.0 mm 0.00 in0.0 mm
01:40 AM 43.2°F6.2°C 37.4°F3.0°C 79% 1.1 mph NW1.8 kmh NW 4.0 mph6.4 kmh 30.18 in1022.0 mb 0.00 in0.0 mm 0.00 in0.0 mm 0.00 in0.0 mm
01:45 AM 43.2°F6.2°C 37.4°F3.0°C 79% 1.0 mph NW1.6 kmh NW 4.0 mph6.4 kmh 30.18 in1022.0 mb 0.00 in0.0 mm 0.00 in0.0 mm 0.00 in0.0 mm
01:50 AM 43.0°F6.1°C 37.4°F3.0°C 79% 0.6 mph NW1.0 kmh NW 2.2 mph3.5 kmh 30.18 in1022.0 mb 0.00 in0.0 mm 0.00 in0.0 mm 0.00 in0.0 mm
01:55 AM 43.0°F6.1°C 37.4°F3.0°C 78% 0.1 mph W0.2 kmh W 1.3 mph2.1 kmh 30.18 in1022.0 mb 0.00 in0.0 mm 0.00 in0.0 mm 0.00 in0.0 mm
02:00 AM 43.0°F6.1°C 37.4°F3.0°C 78% 0.1 mph NE0.2 kmh NE 0.9 mph1.4 kmh 30.18 in1022.0 mb 0.00 in0.0 mm 0.00 in0.0 mm 0.00 in0.0 mm
02:05 AM 43.0°F6.1°C 37.4°F3.0°C 78% 0.2 mph E0.3 kmh E 0.9 mph1.4 kmh 30.15 in1021.0 mb 0.00 in0.0 mm 0.00 in0.0 mm 0.00 in0.0 mm
02:10 AM 43.0°F6.1°C 37.4°F3.0°C 79% 0.3 mph E0.5 kmh E 2.0 mph3.2 kmh 30.15 in1021.0 mb 0.00 in0.0 mm 0.00 in0.0 mm 0.00 in0.0 mm
02:15 AM 42.8°F6.0°C 37.4°F3.0°C 78% 0.1 mph NE0.2 kmh NE 2.0 mph3.2 kmh 30.15 in1021.0 mb 0.00 in0.0 mm 0.00 in0.0 mm 0.00 in0.0 mm
02:20 AM 42.8°F6.0°C 37.4°F3.0°C 78% 0.2 mph SW0.3 kmh SW 1.3 mph2.1 kmh 30.18 in1022.0 mb 0.00 in0.0 mm 0.00 in0.0 mm 0.00 in0.0 mm
02:25 AM 42.8°F6.0°C 37.4°F3.0°C 78% 0.2 mph SW0.3 kmh SW 1.3 mph2.1 kmh 30.18 in1022.0 mb 0.00 in0.0 mm 0.00 in0.0 mm 0.00 in0.0 mm
02:30 AM 42.6°F5.9°C 37.4°F3.0°C 79% 0.2 mph SW0.3 kmh SW 1.3 mph2.1 kmh 30.18 in1022.0 mb 0.00 in0.0 mm 0.00 in0.0 mm 0.00 in0.0 mm
02:35 AM 42.3°F5.7°C 37.4°F3.0°C 79% 0.2 mph SW0.3 kmh SW 1.1 mph1.8 kmh 30.18 in1022.0 mb 0.00 in0.0 mm 0.00 in0.0 mm 0.00 in0.0 mm
02:40 AM 41.9°F5.5°C 37.4°F3.0°C 79% 0.2 mph SW0.3 kmh SW 1.1 mph1.8 kmh 30.18 in1022.0 mb 0.00 in0.0 mm 0.00 in0.0 mm 0.00 in0.0 mm
02:45 AM 41.7°F5.4°C 35.6°F2.0°C 79% 0.3 mph SW0.5 kmh SW 0.9 mph1.4 kmh 30.18 in1022.0 mb 0.00 in0.0 mm 0.00 in0.0 mm 0.00 in0.0 mm
02:50 AM 41.7°F5.4°C 35.6°F2.0°C 79% 0.7 mph SW1.1 kmh SW 2.5 mph4.0 kmh 30.18 in1022.0 mb 0.00 in0.0 mm 0.00 in0.0 mm 0.00 in0.0 mm
02:55 AM 41.7°F5.4°C 35.6°F2.0°C 79% 1.1 mph WSW1.8 kmh WSW 2.5 mph4.0 kmh 30.18 in1022.0 mb 0.00 in0.0 mm 0.00 in0.0 mm 0.00 in0.0 mm
03:00 AM 41.5°F5.3°C 35.6°F2.0°C 79% 1.1 mph WSW1.8 kmh WSW 2.2 mph3.5 kmh 30.18 in1022.0 mb 0.00 in0.0 mm 0.00 in0.0 mm 0.00 in0.0 mm
03:05 AM 41.4°F5.2°C 35.6°F2.0°C 79% 0.5 mph WSW0.8 kmh WSW 1.6 mph2.6 kmh 30.18 in1022.0 mb 0.00 in0.0 mm 0.00 in0.0 mm 0.00 in0.0 mm
03:10 AM 41.4°F5.2°C 35.6°F2.0°C 79% 0.1 mph WSW0.2 kmh WSW 0.9 mph1.4 kmh 30.18 in1022.0 mb 0.00 in0.0 mm 0.00 in0.0 mm 0.00 in0.0 mm
03:15 AM 41.0°F5.0°C 35.6°F2.0°C 79% 0.2 mph WSW0.3 kmh WSW 1.1 mph1.8 kmh 30.18 in1022.0 mb 0.00 in0.0 mm 0.00 in0.0 mm 0.00 in0.0 mm
03:20 AM 41.0°F5.0°C 35.6°F2.0°C 79% 0.7 mph WSW1.1 kmh WSW 2.2 mph3.5 kmh 30.18 in1022.0 mb 0.00 in0.0 mm 0.00 in0.0 mm 0.00 in0.0 mm
03:25 AM 41.0°F5.0°C 35.6°F2.0°C 79% 0.8 mph WSW1.3 kmh WSW 2.2 mph3.5 kmh 30.18 in1022.0 mb 0.00 in0.0 mm 0.00 in0.0 mm 0.00 in0.0 mm
03:30 AM 40.8°F4.9°C 35.6°F2.0°C 79% 0.3 mph SW0.5 kmh SW 0.9 mph1.4 kmh 30.18 in1022.0 mb 0.00 in0.0 mm 0.00 in0.0 mm 0.00 in0.0 mm
03:35 AM 40.6°F4.8°C 33.8°F1.0°C 79% 0.3 mph SW0.5 kmh SW 0.9 mph1.4 kmh 30.18 in1022.0 mb 0.00 in0.0 mm 0.00 in0.0 mm 0.00 in0.0 mm
03:40 AM 40.6°F4.8°C 33.8°F1.0°C 79% 0.1 mph SW0.2 kmh SW 0.9 mph1.4 kmh 30.18 in1022.0 mb 0.00 in0.0 mm 0.00 in0.0 mm 0.00 in0.0 mm
03:45 AM 40.8°F4.9°C 35.6°F2.0°C 79% 0.2 mph S0.3 kmh S 1.1 mph1.8 kmh 30.18 in1022.0 mb 0.00 in0.0 mm 0.00 in0.0 mm 0.00 in0.0 mm
03:50 AM 40.8°F4.9°C 35.6°F2.0°C 79% 0.1 mph S0.2 kmh S 1.1 mph1.8 kmh 30.18 in1022.0 mb 0.00 in0.0 mm 0.00 in0.0 mm 0.00 in0.0 mm
03:55 AM 40.6°F4.8°C 33.8°F1.0°C 79% 0.1 mph S0.2 kmh S 1.1 mph1.8 kmh 30.18 in1022.0 mb 0.00 in0.0 mm 0.00 in0.0 mm 0.00 in0.0 mm
04:00 AM 40.6°F4.8°C 33.8°F1.0°C 79% Calm Calm -- 30.18 in1022.0 mb 0.00 in0.0 mm 0.00 in0.0 mm 0.00 in0.0 mm
04:05 AM 40.8°F4.9°C 35.6°F2.0°C 79% 0.4 mph N0.6 kmh N 1.1 mph1.8 kmh 30.18 in1022.0 mb 0.00 in0.0 mm 0.00 in0.0 mm 0.00 in0.0 mm
04:10 AM 40.8°F4.9°C 35.6°F2.0°C 79% 0.7 mph NNW1.1 kmh NNW 1.1 mph1.8 kmh 30.18 in1022.0 mb 0.00 in0.0 mm 0.00 in0.0 mm 0.00 in0.0 mm
04:15 AM 40.6°F4.8°C 33.8°F1.0°C 79% 0.4 mph NW0.6 kmh NW 1.1 mph1.8 kmh 30.18 in1022.0 mb 0.00 in0.0 mm 0.00 in0.0 mm 0.00 in0.0 mm
04:20 AM 40.5°F4.7°C 33.8°F1.0°C 79% 0.1 mph NNW0.2 kmh NNW 1.1 mph1.8 kmh 30.18 in1022.0 mb 0.00 in0.0 mm 0.00 in0.0 mm 0.00 in0.0 mm
04:25 AM 40.5°F4.7°C 33.8°F1.0°C 79% Calm Calm -- 30.18 in1022.0 mb 0.00 in0.0 mm 0.00 in0.0 mm 0.00 in0.0 mm
04:30 AM 40.3°F4.6°C 35.6°F2.0°C 80% Calm Calm -- 30.18 in1022.0 mb 0.00 in0.0 mm 0.00 in0.0 mm 0.00 in0.0 mm
04:35 AM 40.5°F4.7°C 35.6°F2.0°C 80% Calm Calm -- 30.18 in1022.0 mb 0.00 in0.0 mm 0.00 in0.0 mm 0.00 in0.0 mm
04:40 AM 40.5°F4.7°C 35.6°F2.0°C 80% Calm Calm -- 30.18 in1022.0 mb 0.00 in0.0 mm 0.00 in0.0 mm 0.00 in0.0 mm
04:45 AM 40.5°F4.7°C 35.6°F2.0°C 80% Calm Calm -- 30.18 in1022.0 mb 0.00 in0.0 mm 0.00 in0.0 mm 0.00 in0.0 mm
04:50 AM 40.5°F4.7°C 35.6°F2.0°C 80% Calm Calm -- 30.18 in1022.0 mb 0.00 in0.0 mm 0.00 in0.0 mm 0.00 in0.0 mm
04:55 AM 40.5°F4.7°C 35.6°F2.0°C 80% 0.1 mph SSE0.2 kmh SSE 0.9 mph1.4 kmh 30.18 in1022.0 mb 0.00 in0.0 mm 0.00 in0.0 mm 0.00 in0.0 mm
05:00 AM 40.5°F4.7°C 35.6°F2.0°C 80% 0.2 mph SE0.3 kmh SE 0.9 mph1.4 kmh 30.18 in1022.0 mb 0.00 in0.0 mm 0.00 in0.0 mm 0.00 in0.0 mm
05:05 AM 40.3°F4.6°C 35.6°F2.0°C 80% 0.1 mph SE0.2 kmh SE 0.9 mph1.4 kmh 30.15 in1021.0 mb 0.00 in0.0 mm 0.00 in0.0 mm 0.00 in0.0 mm
05:10 AM 40.3°F4.6°C 33.8°F1.0°C 79% Calm Calm -- 30.15 in1021.0 mb 0.00 in0.0 mm 0.00 in0.0 mm 0.00 in0.0 mm
05:15 AM 40.1°F4.5°C 33.8°F1.0°C 79% Calm Calm -- 30.15 in1021.0 mb 0.00 in0.0 mm 0.00 in0.0 mm 0.00 in0.0 mm
05:20 AM 40.1°F4.5°C 33.8°F1.0°C 79% 0.1 mph SSE0.2 kmh SSE 0.9 mph1.4 kmh 30.15 in1021.0 mb 0.00 in0.0 mm 0.00 in0.0 mm 0.00 in0.0 mm
05:25 AM 40.1°F4.5°C 33.8°F1.0°C 79% 0.2 mph SE0.3 kmh SE 0.9 mph1.4 kmh 30.15 in1021.0 mb 0.00 in0.0 mm 0.00 in0.0 mm 0.00 in0.0 mm
05:30 AM 40.1°F4.5°C 33.8°F1.0°C 79% 0.1 mph SE0.2 kmh SE 0.9 mph1.4 kmh 30.15 in1021.0 mb 0.00 in0.0 mm 0.00 in0.0 mm 0.00 in0.0 mm
05:35 AM 39.9°F4.4°C 33.8°F1.0°C 79% 0.1 mph ESE0.2 kmh ESE 0.9 mph1.4 kmh 30.18 in1022.0 mb 0.00 in0.0 mm 0.00 in0.0 mm 0.00 in0.0 mm
05:40 AM 39.7°F4.3°C 33.8°F1.0°C 79% 0.3 mph E0.5 kmh E 1.1 mph1.8 kmh 30.18 in1022.0 mb 0.00 in0.0 mm 0.00 in0.0 mm 0.00 in0.0 mm
05:45 AM 39.4°F4.1°C 33.8°F1.0°C 79% 0.3 mph E0.5 kmh E 1.1 mph1.8 kmh 30.18 in1022.0 mb 0.00 in0.0 mm 0.00 in0.0 mm 0.00 in0.0 mm
05:50 AM 39.4°F4.1°C 33.8°F1.0°C 79% Calm Calm -- 30.18 in1022.0 mb 0.00 in0.0 mm 0.00 in0.0 mm 0.00 in0.0 mm
05:55 AM 39.2°F4.0°C 33.8°F1.0°C 80% Calm Calm -- 30.18 in1022.0 mb 0.00 in0.0 mm 0.00 in0.0 mm 0.00 in0.0 mm
06:00 AM 39.0°F3.9°C 33.8°F1.0°C 80% 0.2 mph WSW0.3 kmh WSW 1.3 mph2.1 kmh 30.18 in1022.0 mb 0.00 in0.0 mm 0.00 in0.0 mm 0.00 in0.0 mm
06:05 AM 39.0°F3.9°C 33.8°F1.0°C 80% 0.3 mph SW0.5 kmh SW 1.3 mph2.1 kmh 30.18 in1022.0 mb 0.00 in0.0 mm 0.00 in0.0 mm 0.00 in0.0 mm
06:10 AM 39.0°F3.9°C 33.8°F1.0°C 80% 0.2 mph SW0.3 kmh SW 1.1 mph1.8 kmh 30.18 in1022.0 mb 0.00 in0.0 mm 0.00 in0.0 mm 0.00 in0.0 mm
06:15 AM 38.7°F3.7°C 33.8°F1.0°C 80% 0.1 mph SSW0.2 kmh SSW 1.1 mph1.8 kmh 30.18 in1022.0 mb 0.00 in0.0 mm 0.00 in0.0 mm 0.00 in0.0 mm
06:20 AM 38.7°F3.7°C 33.8°F1.0°C 80% 0.4 mph SW0.6 kmh SW 1.1 mph1.8 kmh 30.18 in1022.0 mb 0.00 in0.0 mm 0.00 in0.0 mm 0.00 in0.0 mm
06:25 AM 38.3°F3.5°C 33.8°F1.0°C 80% 0.4 mph SW0.6 kmh SW 1.1 mph1.8 kmh 30.18 in1022.0 mb 0.00 in0.0 mm 0.00 in0.0 mm 0.00 in0.0 mm
06:30 AM 38.3°F3.5°C 33.8°F1.0°C 80% 0.1 mph W0.2 kmh W 0.9 mph1.4 kmh 30.18 in1022.0 mb 0.00 in0.0 mm 0.00 in0.0 mm 0.00 in0.0 mm
06:35 AM 37.9°F3.3°C 33.8°F1.0°C 80% 0.2 mph WSW0.3 kmh WSW 0.9 mph1.4 kmh 30.18 in1022.0 mb 0.00 in0.0 mm 0.00 in0.0 mm 0.00 in0.0 mm
06:40 AM 37.6°F3.1°C 32.0°F0.0°C 80% 0.4 mph WSW0.6 kmh WSW 1.6 mph2.6 kmh 30.18 in1022.0 mb 0.00 in0.0 mm 0.00 in0.0 mm 0.00 in0.0 mm
06:45 AM 37.6°F3.1°C 32.0°F0.0°C 80% 0.6 mph WSW1.0 kmh WSW 2.5 mph4.0 kmh 30.18 in1022.0 mb 0.00 in0.0 mm 0.00 in0.0 mm 0.00 in0.0 mm
06:50 AM 37.8°F3.2°C 33.8°F1.0°C 80% 1.1 mph WSW1.8 kmh WSW 2.5 mph4.0 kmh 30.18 in1022.0 mb 0.00 in0.0 mm 0.00 in0.0 mm 0.00 in0.0 mm
06:55 AM 38.1°F3.4°C 33.8°F1.0°C 80% 1.1 mph WSW1.8 kmh WSW 2.5 mph4.0 kmh 30.18 in1022.0 mb 0.00 in0.0 mm 0.00 in0.0 mm 0.00 in0.0 mm
07:00 AM 38.3°F3.5°C 33.8°F1.0°C 81% 0.4 mph SW0.6 kmh SW 1.1 mph1.8 kmh 30.18 in1022.0 mb 0.00 in0.0 mm 0.00 in0.0 mm 0.00 in0.0 mm
07:05 AM 38.1°F3.4°C 33.8°F1.0°C 80% 0.1 mph S0.2 kmh S 0.9 mph1.4 kmh 30.18 in1022.0 mb 0.00 in0.0 mm 0.00 in0.0 mm 0.00 in0.0 mm
07:10 AM 37.9°F3.3°C 33.8°F1.0°C 80% Calm Calm -- 30.18 in1022.0 mb 0.00 in0.0 mm 0.00 in0.0 mm 0.00 in0.0 mm
07:15 AM 38.1°F3.4°C 33.8°F1.0°C 80% Calm Calm -- 30.18 in1022.0 mb 0.00 in0.0 mm 0.00 in0.0 mm 0.00 in0.0 mm
07:20 AM 37.8°F3.2°C 33.8°F1.0°C 80% Calm Calm -- 30.18 in1022.0 mb 0.00 in0.0 mm 0.00 in0.0 mm 0.00 in0.0 mm
07:25 AM 37.9°F3.3°C 33.8°F1.0°C 80% 0.1 mph SE0.2 kmh SE 0.9 mph1.4 kmh 30.18 in1022.0 mb 0.00 in0.0 mm 0.00 in0.0 mm 0.00 in0.0 mm
07:30 AM 37.6°F3.1°C 32.0°F0.0°C 80% 0.2 mph S0.3 kmh S 1.1 mph1.8 kmh 30.18 in1022.0 mb 0.00 in0.0 mm 0.00 in0.0 mm 0.00 in0.0 mm
07:35 AM 37.2°F2.9°C 32.0°F0.0°C 80% 0.4 mph SW0.6 kmh SW 1.6 mph2.6 kmh 30.18 in1022.0 mb 0.00 in0.0 mm 0.00 in0.0 mm 0.00 in0.0 mm
07:40 AM 37.4°F3.0°C 32.0°F0.0°C 80% 1.0 mph SW1.6 kmh SW 2.0 mph3.2 kmh 30.18 in1022.0 mb 0.00 in0.0 mm 0.00 in0.0 mm 0.00 in0.0 mm
07:45 AM 37.2°F2.9°C 32.0°F0.0°C 81% 1.3 mph SW2.1 kmh SW 2.2 mph3.5 kmh 30.18 in1022.0 mb 0.00 in0.0 mm 0.00 in0.0 mm 0.00 in0.0 mm
07:50 AM 37.2°F2.9°C 32.0°F0.0°C 81% 1.1 mph SW1.8 kmh SW 2.2 mph3.5 kmh 30.18 in1022.0 mb 0.00 in0.0 mm 0.00 in0.0 mm 0.00 in0.0 mm
07:55 AM 37.4°F3.0°C 32.0°F0.0°C 81% 1.1 mph SSW1.8 kmh SSW 1.3 mph2.1 kmh 30.18 in1022.0 mb 0.00 in0.0 mm 0.00 in0.0 mm 0.00 in0.0 mm
08:00 AM 37.4°F3.0°C 32.0°F0.0°C 81% 1.4 mph SW2.3 kmh SW 2.2 mph3.5 kmh 30.18 in1022.0 mb 0.00 in0.0 mm 0.00 in0.0 mm 0.00 in0.0 mm
08:05 AM 37.2°F2.9°C 32.0°F0.0°C 81% 1.2 mph SW1.9 kmh SW 2.2 mph3.5 kmh 30.18 in1022.0 mb 0.00 in0.0 mm 0.00 in0.0 mm 0.00 in0.0 mm
08:10 AM 37.0°F2.8°C 32.0°F0.0°C 81% 0.9 mph SSW1.4 kmh SSW 1.3 mph2.1 kmh 30.18 in1022.0 mb 0.00 in0.0 mm 0.00 in0.0 mm 0.00 in0.0 mm
08:15 AM 37.0°F2.8°C 32.0°F0.0°C 81% 1.1 mph SSW1.8 kmh SSW 2.2 mph3.5 kmh 30.18 in1022.0 mb 0.00 in0.0 mm 0.00 in0.0 mm 0.00 in0.0 mm
08:20 AM 37.0°F2.8°C 32.0°F0.0°C 81% 0.9 mph SSW1.4 kmh SSW 2.2 mph3.5 kmh 30.18 in1022.0 mb 0.00 in0.0 mm 0.00 in0.0 mm 0.00 in0.0 mm
08:25 AM 37.2°F2.9°C 32.0°F0.0°C 81% 0.6 mph SW1.0 kmh SW 1.1 mph1.8 kmh 30.18 in1022.0 mb 0.00 in0.0 mm 0.00 in0.0 mm 0.00 in0.0 mm
08:30 AM 37.2°F2.9°C 32.0°F0.0°C 81% 0.5 mph SSW0.8 kmh SSW 1.3 mph2.1 kmh 30.18 in1022.0 mb 0.00 in0.0 mm 0.00 in0.0 mm 0.00 in0.0 mm
08:35 AM 37.2°F2.9°C 32.0°F0.0°C 81% 0.8 mph SSW1.3 kmh SSW 1.6 mph2.6 kmh 30.18 in1022.0 mb 0.00 in0.0 mm 0.00 in0.0 mm 0.00 in0.0 mm
08:40 AM 37.4°F3.0°C 32.0°F0.0°C 81% 0.7 mph SSW1.1 kmh SSW 1.6 mph2.6 kmh 30.18 in1022.0 mb 0.00 in0.0 mm 0.00 in0.0 mm 0.00 in0.0 mm
08:45 AM 37.6°F3.1°C 32.0°F0.0°C 81% 0.3 mph SSW0.5 kmh SSW 1.6 mph2.6 kmh 30.18 in1022.0 mb 0.00 in0.0 mm 0.00 in0.0 mm 0.00 in0.0 mm
08:50 AM 37.9°F3.3°C 33.8°F1.0°C 81% 0.5 mph SSW0.8 kmh SSW 1.3 mph2.1 kmh 30.18 in1022.0 mb 0.00 in0.0 mm 0.00 in0.0 mm 0.00 in0.0 mm
08:55 AM 38.1°F3.4°C 33.8°F1.0°C 81% 0.6 mph SSW1.0 kmh SSW 1.3 mph2.1 kmh 30.18 in1022.0 mb 0.00 in0.0 mm 0.00 in0.0 mm 0.00 in0.0 mm
09:00 AM 38.1°F3.4°C 33.8°F1.0°C 81% 0.1 mph SSW0.2 kmh SSW 1.1 mph1.8 kmh 30.18 in1022.0 mb 0.00 in0.0 mm 0.00 in0.0 mm 0.00 in0.0 mm
09:05 AM 38.3°F3.5°C 33.8°F1.0°C 81% Calm Calm -- 30.18 in1022.0 mb 0.00 in0.0 mm 0.00 in0.0 mm 0.00 in0.0 mm
09:10 AM 38.5°F3.6°C 33.8°F1.0°C 81% Calm Calm -- 30.18 in1022.0 mb 0.00 in0.0 mm 0.00 in0.0 mm 0.00 in0.0 mm
09:15 AM 38.7°F3.7°C 33.8°F1.0°C 81% Calm Calm -- 30.18 in1022.0 mb 0.00 in0.0 mm 0.00 in0.0 mm 0.00 in0.0 mm
09:20 AM 38.7°F3.7°C 33.8°F1.0°C 81% 0.1 mph WSW0.2 kmh WSW 0.9 mph1.4 kmh 30.18 in1022.0 mb 0.00 in0.0 mm 0.00 in0.0 mm 0.00 in0.0 mm
09:25 AM 38.8°F3.8°C 33.8°F1.0°C 81% 0.4 mph WSW0.6 kmh WSW 1.1 mph1.8 kmh 30.18 in1022.0 mb 0.00 in0.0 mm 0.00 in0.0 mm 0.00 in0.0 mm
09:30 AM 39.2°F4.0°C 33.8°F1.0°C 81% 0.4 mph WSW0.6 kmh WSW 1.1 mph1.8 kmh 30.18 in1022.0 mb 0.00 in0.0 mm 0.00 in0.0 mm 0.00 in0.0 mm
09:35 AM 39.4°F4.1°C 33.8°F1.0°C 81% 0.2 mph W0.3 kmh W 1.1 mph1.8 kmh 30.18 in1022.0 mb 0.00 in0.0 mm 0.00 in0.0 mm 0.00 in0.0 mm
09:40 AM 39.9°F4.4°C 33.8°F1.0°C 81% 0.7 mph WSW1.1 kmh WSW 2.0 mph3.2 kmh 30.18 in1022.0 mb 0.00 in0.0 mm 0.00 in0.0 mm 0.00 in0.0 mm
09:45 AM 40.1°F4.5°C 35.6°F2.0°C 81% 1.0 mph WSW1.6 kmh WSW 2.0 mph3.2 kmh 30.18 in1022.0 mb 0.00 in0.0 mm 0.00 in0.0 mm 0.00 in0.0 mm
09:50 AM 40.8°F4.9°C 35.6°F2.0°C 81% 1.0 mph W1.6 kmh W 2.7 mph4.3 kmh 30.18 in1022.0 mb 0.00 in0.0 mm 0.00 in0.0 mm 0.00 in0.0 mm
09:55 AM 41.5°F5.3°C 37.4°F3.0°C 80% 1.2 mph W1.9 kmh W 2.7 mph4.3 kmh 30.18 in1022.0 mb 0.00 in0.0 mm 0.00 in0.0 mm 0.00 in0.0 mm
10:00 AM 41.9°F5.5°C 37.4°F3.0°C 80% 1.5 mph WSW2.4 kmh WSW 2.7 mph4.3 kmh 30.18 in1022.0 mb 0.00 in0.0 mm 0.00 in0.0 mm 0.00 in0.0 mm
10:05 AM 42.1°F5.6°C 37.4°F3.0°C 80% 2.0 mph WSW3.2 kmh WSW 3.4 mph5.5 kmh 30.21 in1023.0 mb 0.00 in0.0 mm 0.00 in0.0 mm 0.00 in0.0 mm
10:10 AM 42.3°F5.7°C 37.4°F3.0°C 80% 1.4 mph WSW2.3 kmh WSW 3.4 mph5.5 kmh 30.21 in1023.0 mb 0.00 in0.0 mm 0.00 in0.0 mm 0.00 in0.0 mm
10:15 AM 42.4°F5.8°C 37.4°F3.0°C 80% 1.1 mph WSW1.8 kmh WSW 2.7 mph4.3 kmh 30.21 in1023.0 mb 0.00 in0.0 mm 0.00 in0.0 mm 0.00 in0.0 mm
10:20 AM 42.4°F5.8°C 37.4°F3.0°C 80% 1.5 mph WSW2.4 kmh WSW 2.7 mph4.3 kmh 30.21 in1023.0 mb 0.00 in0.0 mm 0.00 in0.0 mm 0.00 in0.0 mm
10:25 AM 42.8°F6.0°C 37.4°F3.0°C 79% 1.8 mph W2.9 kmh W 2.7 mph4.3 kmh 30.21 in1023.0 mb 0.00 in0.0 mm 0.00 in0.0 mm 0.00 in0.0 mm
10:30 AM 43.0°F6.1°C 37.4°F3.0°C 79% 1.6 mph WNW2.6 kmh WNW 2.7 mph4.3 kmh 30.21 in1023.0 mb 0.00 in0.0 mm 0.00 in0.0 mm 0.00 in0.0 mm
10:35 AM 43.2°F6.2°C 37.4°F3.0°C 79% 1.8 mph NW2.9 kmh NW 2.9 mph4.7 kmh 30.21 in1023.0 mb 0.00 in0.0 mm 0.00 in0.0 mm 0.00 in0.0 mm
10:40 AM 43.3°F6.3°C 37.4°F3.0°C 79% 2.1 mph NW3.4 kmh NW 2.9 mph4.7 kmh 30.21 in1023.0 mb 0.00 in0.0 mm 0.00 in0.0 mm 0.00 in0.0 mm
10:45 AM 43.5°F6.4°C 37.4°F3.0°C 79% 2.0 mph W3.2 kmh W 4.7 mph7.6 kmh 30.21 in1023.0 mb 0.00 in0.0 mm 0.00 in0.0 mm 0.00 in0.0 mm
10:50 AM 43.7°F6.5°C 37.4°F3.0°C 79% 2.3 mph W3.7 kmh W 4.7 mph7.6 kmh 30.21 in1023.0 mb 0.00 in0.0 mm 0.00 in0.0 mm 0.00 in0.0 mm
10:55 AM 43.7°F6.5°C 37.4°F3.0°C 78% 2.1 mph W3.4 kmh W 4.7 mph7.6 kmh 30.21 in1023.0 mb 0.00 in0.0 mm 0.00 in0.0 mm 0.00 in0.0 mm
11:00 AM 43.9°F6.6°C 37.4°F3.0°C 78% 2.4 mph WSW3.9 kmh WSW 4.0 mph6.4 kmh 30.21 in1023.0 mb 0.00 in0.0 mm 0.00 in0.0 mm 0.00 in0.0 mm
11:05 AM 44.1°F6.7°C 37.4°F3.0°C 78% 2.9 mph WSW4.7 kmh WSW 4.0 mph6.4 kmh 30.21 in1023.0 mb 0.00 in0.0 mm 0.00 in0.0 mm 0.00 in0.0 mm
11:10 AM 44.2°F6.8°C 37.4°F3.0°C 78% 2.6 mph WSW4.2 kmh WSW 4.0 mph6.4 kmh 30.21 in1023.0 mb 0.00 in0.0 mm 0.00 in0.0 mm 0.00 in0.0 mm
11:15 AM 44.2°F6.8°C 37.4°F3.0°C 78% 3.3 mph SW5.3 kmh SW 6.0 mph9.7 kmh 30.21 in1023.0 mb 0.00 in0.0 mm 0.00 in0.0 mm 0.00 in0.0 mm
11:20 AM 44.4°F6.9°C 37.4°F3.0°C 78% 4.2 mph WSW6.8 kmh WSW 6.0 mph9.7 kmh 30.18 in1022.0 mb 0.00 in0.0 mm 0.00 in0.0 mm 0.00 in0.0 mm
11:25 AM 44.4°F6.9°C 37.4°F3.0°C 78% 3.6 mph WSW5.8 kmh WSW 6.0 mph9.7 kmh 30.18 in1022.0 mb 0.00 in0.0 mm 0.00 in0.0 mm 0.00 in0.0 mm
11:30 AM 44.6°F7.0°C 37.4°F3.0°C 78% 2.7 mph WSW4.3 kmh WSW 4.3 mph6.9 kmh 30.18 in1022.0 mb 0.00 in0.0 mm 0.00 in0.0 mm 0.00 in0.0 mm
11:35 AM 44.6°F7.0°C 37.4°F3.0°C 78% 2.0 mph WSW3.2 kmh WSW 2.7 mph4.3 kmh 30.21 in1023.0 mb 0.00 in0.0 mm 0.00 in0.0 mm 0.00 in0.0 mm
11:40 AM 44.6°F7.0°C 37.4°F3.0°C 78% 1.8 mph WSW2.9 kmh WSW 2.5 mph4.0 kmh 30.21 in1023.0 mb 0.00 in0.0 mm 0.00 in0.0 mm 0.00 in0.0 mm
11:45 AM 44.6°F7.0°C 37.4°F3.0°C 78% 2.2 mph WSW3.5 kmh WSW 4.0 mph6.4 kmh 30.21 in1023.0 mb 0.00 in0.0 mm 0.00 in0.0 mm 0.00 in0.0 mm
11:50 AM 44.8°F7.1°C 37.4°F3.0°C 78% 2.5 mph WSW4.0 kmh WSW 4.0 mph6.4 kmh 30.18 in1022.0 mb 0.00 in0.0 mm 0.00 in0.0 mm 0.00 in0.0 mm
11:55 AM 44.8°F7.1°C 37.4°F3.0°C 77% 3.0 mph W4.8 kmh W 4.9 mph7.9 kmh 30.18 in1022.0 mb 0.00 in0.0 mm 0.00 in0.0 mm 0.00 in0.0 mm
12:00 PM 45.0°F7.2°C 39.2°F4.0°C 77% 2.8 mph W4.5 kmh W 4.9 mph7.9 kmh 30.18 in1022.0 mb 0.00 in0.0 mm 0.00 in0.0 mm 0.00 in0.0 mm
12:05 PM 45.0°F7.2°C 39.2°F4.0°C 77% 2.7 mph W4.3 kmh W 3.8 mph6.1 kmh 30.18 in1022.0 mb 0.00 in0.0 mm 0.00 in0.0 mm 0.00 in0.0 mm
12:10 PM 45.1°F7.3°C 39.2°F4.0°C 77% 3.7 mph W6.0 kmh W 5.6 mph9.0 kmh 30.18 in1022.0 mb 0.00 in0.0 mm 0.00 in0.0 mm 0.00 in0.0 mm
12:15 PM 45.1°F7.3°C 39.2°F4.0°C 77% 4.0 mph W6.4 kmh W 6.5 mph10.5 kmh 30.18 in1022.0 mb 0.00 in0.0 mm 0.00 in0.0 mm 0.00 in0.0 mm
12:20 PM 45.3°F7.4°C 39.2°F4.0°C 77% 3.2 mph W5.1 kmh W 6.5 mph10.5 kmh 30.18 in1022.0 mb 0.00 in0.0 mm 0.00 in0.0 mm 0.00 in0.0 mm
12:25 PM 45.3°F7.4°C 39.2°F4.0°C 77% 2.6 mph WNW4.2 kmh WNW 4.7 mph7.6 kmh 30.18 in1022.0 mb 0.00 in0.0 mm 0.00 in0.0 mm 0.00 in0.0 mm
12:30 PM 45.3°F7.4°C 39.2°F4.0°C 77% 2.8 mph W4.5 kmh W 4.3 mph6.9 kmh 30.18 in1022.0 mb 0.00 in0.0 mm 0.00 in0.0 mm 0.00 in0.0 mm
12:35 PM 45.5°F7.5°C 39.2°F4.0°C 76% 3.4 mph W5.5 kmh W 5.8 mph9.3 kmh 30.18 in1022.0 mb 0.00 in0.0 mm 0.00 in0.0 mm 0.00 in0.0 mm
12:40 PM 45.7°F7.6°C 39.2°F4.0°C 76% 3.9 mph WNW6.3 kmh WNW 5.8 mph9.3 kmh 30.18 in1022.0 mb 0.00 in0.0 mm 0.00 in0.0 mm 0.00 in0.0 mm
12:45 PM 45.7°F7.6°C 39.2°F4.0°C 76% 3.8 mph W6.1 kmh W 5.8 mph9.3 kmh 30.18 in1022.0 mb 0.00 in0.0 mm 0.00 in0.0 mm 0.00 in0.0 mm
12:50 PM 45.9°F7.7°C 39.2°F4.0°C 76% 3.3 mph WSW5.3 kmh WSW 5.8 mph9.3 kmh 30.18 in1022.0 mb 0.00 in0.0 mm 0.00 in0.0 mm 0.00 in0.0 mm
12:55 PM 45.9°F7.7°C 39.2°F4.0°C 76% 2.3 mph W3.7 kmh W 3.8 mph6.1 kmh 30.18 in1022.0 mb 0.00 in0.0 mm 0.00 in0.0 mm 0.00 in0.0 mm
01:00 PM 45.9°F7.7°C 39.2°F4.0°C 76% 2.3 mph W3.7 kmh W 3.6 mph5.8 kmh 30.18 in1022.0 mb 0.00 in0.0 mm 0.00 in0.0 mm 0.00 in0.0 mm
01:05 PM 45.9°F7.7°C 39.2°F4.0°C 76% 2.4 mph W3.9 kmh W 4.0 mph6.4 kmh 30.18 in1022.0 mb 0.00 in0.0 mm 0.00 in0.0 mm 0.00 in0.0 mm
01:10 PM 45.9°F7.7°C 39.2°F4.0°C 76% 2.3 mph W3.7 kmh W 4.0 mph6.4 kmh 30.18 in1022.0 mb 0.00 in0.0 mm 0.00 in0.0 mm 0.00 in0.0 mm
01:15 PM 45.9°F7.7°C 39.2°F4.0°C 76% 2.5 mph W4.0 kmh W 3.8 mph6.1 kmh 30.18 in1022.0 mb 0.00 in0.0 mm 0.00 in0.0 mm 0.00 in0.0 mm
01:20 PM 45.9°F7.7°C 39.2°F4.0°C 76% 2.6 mph W4.2 kmh W 3.8 mph6.1 kmh 30.18 in1022.0 mb 0.00 in0.0 mm 0.00 in0.0 mm 0.00 in0.0 mm
01:25 PM 45.7°F7.6°C 39.2°F4.0°C 76% 2.9 mph WNW4.7 kmh WNW 4.9 mph7.9 kmh 30.18 in1022.0 mb 0.00 in0.0 mm 0.00 in0.0 mm 0.00 in0.0 mm
01:30 PM 45.7°F7.6°C 39.2°F4.0°C 76% 2.9 mph WNW4.7 kmh WNW 4.9 mph7.9 kmh 30.18 in1022.0 mb 0.00 in0.0 mm 0.00 in0.0 mm 0.00 in0.0 mm
01:35 PM 45.7°F7.6°C 39.2°F4.0°C 76% 2.7 mph W4.3 kmh W 4.0 mph6.4 kmh 30.15 in1021.0 mb 0.00 in0.0 mm 0.00 in0.0 mm 0.00 in0.0 mm
01:40 PM 45.7°F7.6°C 39.2°F4.0°C 76% 2.5 mph WSW4.0 kmh WSW 4.0 mph6.4 kmh 30.15 in1021.0 mb 0.00 in0.0 mm 0.00 in0.0 mm 0.00 in0.0 mm
01:45 PM 45.7°F7.6°C 39.2°F4.0°C 76% 2.3 mph W3.7 kmh W 3.6 mph5.8 kmh 30.15 in1021.0 mb 0.00 in0.0 mm 0.00 in0.0 mm 0.00 in0.0 mm
01:50 PM 45.7°F7.6°C 39.2°F4.0°C 76% 2.2 mph W3.5 kmh W 3.6 mph5.8 kmh 30.15 in1021.0 mb 0.00 in0.0 mm 0.00 in0.0 mm 0.00 in0.0 mm
01:55 PM 45.7°F7.6°C 39.2°F4.0°C 77% 2.3 mph W3.7 kmh W 4.0 mph6.4 kmh 30.15 in1021.0 mb 0.00 in0.0 mm 0.00 in0.0 mm 0.00 in0.0 mm
02:00 PM 45.5°F7.5°C 39.2°F4.0°C 77% 2.3 mph WSW3.7 kmh WSW 4.0 mph6.4 kmh 30.15 in1021.0 mb 0.00 in0.0 mm 0.00 in0.0 mm 0.00 in0.0 mm
02:05 PM 45.5°F7.5°C 39.2°F4.0°C 77% 2.0 mph WSW3.2 kmh WSW 2.9 mph4.7 kmh 30.15 in1021.0 mb 0.00 in0.0 mm 0.00 in0.0 mm 0.00 in0.0 mm
02:10 PM 45.5°F7.5°C 39.2°F4.0°C 77% 2.2 mph W3.5 kmh W 4.0 mph6.4 kmh 30.15 in1021.0 mb 0.00 in0.0 mm 0.00 in0.0 mm 0.00 in0.0 mm
02:15 PM 45.5°F7.5°C 39.2°F4.0°C 77% 3.1 mph W5.0 kmh W 5.8 mph9.3 kmh 30.15 in1021.0 mb 0.00 in0.0 mm 0.00 in0.0 mm 0.00 in0.0 mm
02:20 PM 45.3°F7.4°C 39.2°F4.0°C 77% 3.3 mph WSW5.3 kmh WSW 5.8 mph9.3 kmh 30.15 in1021.0 mb 0.00 in0.0 mm 0.00 in0.0 mm 0.00 in0.0 mm
02:25 PM 45.3°F7.4°C 39.2°F4.0°C 77% 3.2 mph WSW5.1 kmh WSW 5.8 mph9.3 kmh 30.15 in1021.0 mb 0.00 in0.0 mm 0.00 in0.0 mm 0.00 in0.0 mm
02:30 PM 45.3°F7.4°C 39.2°F4.0°C 77% 3.3 mph WSW5.3 kmh WSW 6.0 mph9.7 kmh 30.15 in1021.0 mb 0.00 in0.0 mm 0.00 in0.0 mm 0.00 in0.0 mm
02:35 PM 45.3°F7.4°C 39.2°F4.0°C 77% 3.8 mph WSW6.1 kmh WSW 6.0 mph9.7 kmh 30.15 in1021.0 mb 0.00 in0.0 mm 0.00 in0.0 mm 0.00 in0.0 mm
02:40 PM 45.1°F7.3°C 39.2°F4.0°C 77% 3.4 mph WSW5.5 kmh WSW 6.0 mph9.7 kmh 30.15 in1021.0 mb 0.00 in0.0 mm 0.00 in0.0 mm 0.00 in0.0 mm
02:45 PM 45.1°F7.3°C 39.2°F4.0°C 77% 2.9 mph WSW4.7 kmh WSW 4.7 mph7.6 kmh 30.15 in1021.0 mb 0.00 in0.0 mm 0.00 in0.0 mm 0.00 in0.0 mm
02:50 PM 45.1°F7.3°C 39.2°F4.0°C 77% 3.2 mph WSW5.1 kmh WSW 4.3 mph6.9 kmh 30.15 in1021.0 mb 0.00 in0.0 mm 0.00 in0.0 mm 0.00 in0.0 mm
02:55 PM 45.1°F7.3°C 39.2°F4.0°C 77% 3.4 mph WSW5.5 kmh WSW 4.3 mph6.9 kmh 30.15 in1021.0 mb 0.00 in0.0 mm 0.00 in0.0 mm 0.00 in0.0 mm
03:00 PM 45.0°F7.2°C 39.2°F4.0°C 77% 2.6 mph WSW4.2 kmh WSW 4.3 mph6.9 kmh 30.15 in1021.0 mb 0.00 in0.0 mm 0.00 in0.0 mm 0.00 in0.0 mm
03:05 PM 45.0°F7.2°C 39.2°F4.0°C 77% 2.2 mph W3.5 kmh W 4.0 mph6.4 kmh 30.15 in1021.0 mb 0.00 in0.0 mm 0.00 in0.0 mm 0.00 in0.0 mm
03:10 PM 45.0°F7.2°C 39.2°F4.0°C 77% 2.7 mph W4.3 kmh W 4.0 mph6.4 kmh 30.15 in1021.0 mb 0.00 in0.0 mm 0.00 in0.0 mm 0.00 in0.0 mm
03:15 PM 44.8°F7.1°C 37.4°F3.0°C 77% 2.3 mph WSW3.7 kmh WSW 3.8 mph6.1 kmh 30.15 in1021.0 mb 0.00 in0.0 mm 0.00 in0.0 mm 0.00 in0.0 mm
03:20 PM 44.8°F7.1°C 37.4°F3.0°C 76% 2.2 mph W3.5 kmh W 3.1 mph5.0 kmh 30.18 in1022.0 mb 0.00 in0.0 mm 0.00 in0.0 mm 0.00 in0.0 mm
03:25 PM 44.6°F7.0°C 37.4°F3.0°C 76% 2.4 mph W3.9 kmh W 3.1 mph5.0 kmh 30.18 in1022.0 mb 0.00 in0.0 mm 0.00 in0.0 mm 0.00 in0.0 mm
03:30 PM 44.6°F7.0°C 37.4°F3.0°C 76% 2.3 mph WSW3.7 kmh WSW 4.3 mph6.9 kmh 30.18 in1022.0 mb 0.00 in0.0 mm 0.00 in0.0 mm 0.00 in0.0 mm
03:35 PM 44.4°F6.9°C 37.4°F3.0°C 76% 2.3 mph WSW3.7 kmh WSW 4.3 mph6.9 kmh 30.15 in1021.0 mb 0.00 in0.0 mm 0.00 in0.0 mm 0.00 in0.0 mm
03:40 PM 44.6°F7.0°C 37.4°F3.0°C 76% 2.4 mph W3.9 kmh W 4.0 mph6.4 kmh 30.15 in1021.0 mb 0.00 in0.0 mm 0.00 in0.0 mm 0.00 in0.0 mm
03:45 PM 44.4°F6.9°C 37.4°F3.0°C 76% 2.6 mph WSW4.2 kmh WSW 4.0 mph6.4 kmh 30.15 in1021.0 mb 0.00 in0.0 mm 0.00 in0.0 mm 0.00 in0.0 mm
03:50 PM 44.4°F6.9°C 37.4°F3.0°C 76% 2.6 mph W4.2 kmh W 3.6 mph5.8 kmh 30.15 in1021.0 mb 0.00 in0.0 mm 0.00 in0.0 mm 0.00 in0.0 mm
03:55 PM 44.2°F6.8°C 37.4°F3.0°C 76% 2.2 mph W3.5 kmh W 2.9 mph4.7 kmh 30.15 in1021.0 mb 0.00 in0.0 mm 0.00 in0.0 mm 0.00 in0.0 mm
04:00 PM 44.2°F6.8°C 37.4°F3.0°C 76% 2.0 mph W3.2 kmh W 3.4 mph5.5 kmh 30.15 in1021.0 mb 0.00 in0.0 mm 0.00 in0.0 mm 0.00 in0.0 mm
04:05 PM 44.2°F6.8°C 37.4°F3.0°C 76% 2.3 mph W3.7 kmh W 3.4 mph5.5 kmh 30.15 in1021.0 mb 0.00 in0.0 mm 0.00 in0.0 mm 0.00 in0.0 mm
04:10 PM 44.1°F6.7°C 37.4°F3.0°C 76% 2.5 mph W4.0 kmh W 3.4 mph5.5 kmh 30.15 in1021.0 mb 0.00 in0.0 mm 0.00 in0.0 mm 0.00 in0.0 mm
04:15 PM 44.1°F6.7°C 37.4°F3.0°C 76% 2.6 mph W4.2 kmh W 3.6 mph5.8 kmh 30.15 in1021.0 mb 0.00 in0.0 mm 0.00 in0.0 mm 0.00 in0.0 mm
04:20 PM 43.9°F6.6°C 37.4°F3.0°C 76% 2.3 mph W3.7 kmh W 3.6 mph5.8 kmh 30.15 in1021.0 mb 0.00 in0.0 mm 0.00 in0.0 mm 0.00 in0.0 mm
04:25 PM 43.9°F6.6°C 37.4°F3.0°C 76% 1.7 mph W2.7 kmh W 3.1 mph5.0 kmh 30.15 in1021.0 mb 0.00 in0.0 mm 0.00 in0.0 mm 0.00 in0.0 mm
04:30 PM 43.9°F6.6°C 37.4°F3.0°C 76% 1.8 mph WSW2.9 kmh WSW 3.1 mph5.0 kmh 30.15 in1021.0 mb 0.00 in0.0 mm 0.00 in0.0 mm 0.00 in0.0 mm
04:35 PM 43.9°F6.6°C 37.4°F3.0°C 76% 2.0 mph WSW3.2 kmh WSW 3.4 mph5.5 kmh 30.15 in1021.0 mb 0.00 in0.0 mm 0.00 in0.0 mm 0.00 in0.0 mm
04:40 PM 43.7°F6.5°C 37.4°F3.0°C 76% 1.1 mph WSW1.8 kmh WSW 3.4 mph5.5 kmh 30.15 in1021.0 mb 0.00 in0.0 mm 0.00 in0.0 mm 0.00 in0.0 mm
04:45 PM 43.7°F6.5°C 37.4°F3.0°C 76% 0.4 mph W0.6 kmh W 1.1 mph1.8 kmh 30.15 in1021.0 mb 0.00 in0.0 mm 0.00 in0.0 mm 0.00 in0.0 mm
04:50 PM 43.5°F6.4°C 37.4°F3.0°C 76% 0.5 mph WSW0.8 kmh WSW 1.6 mph2.6 kmh 30.15 in1021.0 mb 0.00 in0.0 mm 0.00 in0.0 mm 0.00 in0.0 mm
04:55 PM 43.5°F6.4°C 37.4°F3.0°C 76% 0.2 mph WSW0.3 kmh WSW 1.6 mph2.6 kmh 30.15 in1021.0 mb 0.00 in0.0 mm 0.00 in0.0 mm 0.00 in0.0 mm
05:00 PM 43.3°F6.3°C 37.4°F3.0°C 76% 0.1 mph SW0.2 kmh SW 1.1 mph1.8 kmh 30.15 in1021.0 mb 0.00 in0.0 mm 0.00 in0.0 mm 0.00 in0.0 mm
05:05 PM 43.3°F6.3°C 37.4°F3.0°C 77% 0.3 mph SW0.5 kmh SW 1.1 mph1.8 kmh 30.15 in1021.0 mb 0.00 in0.0 mm 0.00 in0.0 mm 0.00 in0.0 mm
05:10 PM 43.3°F6.3°C 37.4°F3.0°C 77% 0.5 mph SW0.8 kmh SW 1.6 mph2.6 kmh 30.15 in1021.0 mb 0.00 in0.0 mm 0.00 in0.0 mm 0.00 in0.0 mm
05:15 PM 43.3°F6.3°C 37.4°F3.0°C 77% 0.7 mph WSW1.1 kmh WSW 1.6 mph2.6 kmh 30.15 in1021.0 mb 0.00 in0.0 mm 0.00 in0.0 mm 0.00 in0.0 mm
05:20 PM 43.3°F6.3°C 37.4°F3.0°C 77% 1.5 mph WSW2.4 kmh WSW 3.4 mph5.5 kmh 30.15 in1021.0 mb 0.00 in0.0 mm 0.00 in0.0 mm 0.00 in0.0 mm
05:25 PM 43.3°F6.3°C 37.4°F3.0°C 77% 2.3 mph WSW3.7 kmh WSW 3.4 mph5.5 kmh 30.15 in1021.0 mb 0.00 in0.0 mm 0.00 in0.0 mm 0.00 in0.0 mm
05:30 PM 43.3°F6.3°C 37.4°F3.0°C 77% 2.7 mph WSW4.3 kmh WSW 3.6 mph5.8 kmh 30.15 in1021.0 mb 0.00 in0.0 mm 0.00 in0.0 mm 0.00 in0.0 mm
05:35 PM 43.2°F6.2°C 37.4°F3.0°C 77% 2.6 mph WSW4.2 kmh WSW 3.8 mph6.1 kmh 30.15 in1021.0 mb 0.00 in0.0 mm 0.00 in0.0 mm 0.00 in0.0 mm
05:40 PM 43.2°F6.2°C 37.4°F3.0°C 77% 2.4 mph WSW3.9 kmh WSW 3.8 mph6.1 kmh 30.15 in1021.0 mb 0.00 in0.0 mm 0.00 in0.0 mm 0.00 in0.0 mm
05:45 PM 43.2°F6.2°C 37.4°F3.0°C 77% 1.7 mph WSW2.7 kmh WSW 3.4 mph5.5 kmh 30.15 in1021.0 mb 0.00 in0.0 mm 0.00 in0.0 mm 0.00 in0.0 mm
05:50 PM 43.2°F6.2°C 37.4°F3.0°C 77% 1.5 mph WSW2.4 kmh WSW 3.4 mph5.5 kmh 30.15 in1021.0 mb 0.00 in0.0 mm 0.00 in0.0 mm 0.00 in0.0 mm
05:55 PM 43.0°F6.1°C 37.4°F3.0°C 77% 1.4 mph WSW2.3 kmh WSW 2.9 mph4.7 kmh 30.15 in1021.0 mb 0.00 in0.0 mm 0.00 in0.0 mm 0.00 in0.0 mm
06:00 PM 43.0°F6.1°C 37.4°F3.0°C 77% 1.4 mph WSW2.3 kmh WSW 2.7 mph4.3 kmh 30.15 in1021.0 mb 0.00 in0.0 mm 0.00 in0.0 mm 0.00 in0.0 mm
06:05 PM 43.0°F6.1°C 37.4°F3.0°C 77% 1.4 mph WSW2.3 kmh WSW 2.7 mph4.3 kmh 30.15 in1021.0 mb 0.00 in0.0 mm 0.00 in0.0 mm 0.00 in0.0 mm
06:10 PM 43.0°F6.1°C 37.4°F3.0°C 77% 1.0 mph WSW1.6 kmh WSW 2.5 mph4.0 kmh 30.15 in1021.0 mb 0.00 in0.0 mm 0.00 in0.0 mm 0.00 in0.0 mm
06:15 PM 43.0°F6.1°C 37.4°F3.0°C 77% 0.8 mph WSW1.3 kmh WSW 2.5 mph4.0 kmh 30.15 in1021.0 mb 0.00 in0.0 mm 0.00 in0.0 mm 0.00 in0.0 mm
06:20 PM 43.0°F6.1°C 37.4°F3.0°C 77% 1.2 mph W1.9 kmh W 2.5 mph4.0 kmh 30.12 in1020.0 mb 0.00 in0.0 mm 0.00 in0.0 mm 0.00 in0.0 mm
06:25 PM 42.8°F6.0°C 37.4°F3.0°C 77% 1.5 mph W2.4 kmh W 2.2 mph3.5 kmh 30.12 in1020.0 mb 0.00 in0.0 mm 0.00 in0.0 mm 0.00 in0.0 mm
06:30 PM 42.8°F6.0°C 37.4°F3.0°C 77% 1.5 mph WSW2.4 kmh WSW 3.1 mph5.0 kmh 30.12 in1020.0 mb 0.00 in0.0 mm 0.00 in0.0 mm 0.00 in0.0 mm
06:35 PM 42.8°F6.0°C 37.4°F3.0°C 77% 1.4 mph WSW2.3 kmh WSW 3.1 mph5.0 kmh 30.15 in1021.0 mb 0.00 in0.0 mm 0.00 in0.0 mm 0.00 in0.0 mm
06:40 PM 42.8°F6.0°C 37.4°F3.0°C 77% 1.7 mph WSW2.7 kmh WSW 3.4 mph5.5 kmh 30.15 in1021.0 mb 0.00 in0.0 mm 0.00 in0.0 mm 0.00 in0.0 mm
06:45 PM 42.8°F6.0°C 37.4°F3.0°C 77% 2.5 mph WSW4.0 kmh WSW 3.6 mph5.8 kmh 30.15 in1021.0 mb 0.00 in0.0 mm 0.00 in0.0 mm 0.00 in0.0 mm
06:50 PM 42.8°F6.0°C 37.4°F3.0°C 77% 2.5 mph WSW4.0 kmh WSW 3.6 mph5.8 kmh 30.12 in1020.0 mb 0.00 in0.0 mm 0.00 in0.0 mm 0.00 in0.0 mm
06:55 PM 42.8°F6.0°C 37.4°F3.0°C 77% 1.7 mph WSW2.7 kmh WSW 3.4 mph5.5 kmh 30.12 in1020.0 mb 0.00 in0.0 mm 0.00 in0.0 mm 0.00 in0.0 mm
07:00 PM 42.8°F6.0°C 37.4°F3.0°C 77% 1.4 mph WSW2.3 kmh WSW 3.1 mph5.0 kmh 30.12 in1020.0 mb 0.00 in0.0 mm 0.00 in0.0 mm 0.00 in0.0 mm
07:05 PM 42.8°F6.0°C 37.4°F3.0°C 77% 1.8 mph WSW2.9 kmh WSW 3.1 mph5.0 kmh 30.12 in1020.0 mb 0.00 in0.0 mm 0.00 in0.0 mm 0.00 in0.0 mm
07:10 PM 42.8°F6.0°C 37.4°F3.0°C 77% 1.9 mph WSW3.1 kmh WSW 3.1 mph5.0 kmh 30.12 in1020.0 mb 0.00 in0.0 mm 0.00 in0.0 mm 0.00 in0.0 mm
07:15 PM 42.8°F6.0°C 37.4°F3.0°C 77% 1.6 mph WSW2.6 kmh WSW 2.5 mph4.0 kmh 30.12 in1020.0 mb 0.00 in0.0 mm 0.00 in0.0 mm 0.00 in0.0 mm
07:20 PM 42.8°F6.0°C 37.4°F3.0°C 77% 1.3 mph WSW2.1 kmh WSW 2.2 mph3.5 kmh 30.12 in1020.0 mb 0.00 in0.0 mm 0.00 in0.0 mm 0.00 in0.0 mm
07:25 PM 42.8°F6.0°C 37.4°F3.0°C 77% 0.8 mph WSW1.3 kmh WSW 2.2 mph3.5 kmh 30.12 in1020.0 mb 0.00 in0.0 mm 0.00 in0.0 mm 0.00 in0.0 mm
07:30 PM 42.8°F6.0°C 37.4°F3.0°C 77% 0.3 mph WSW0.5 kmh WSW 1.3 mph2.1 kmh 30.12 in1020.0 mb 0.00 in0.0 mm 0.00 in0.0 mm 0.00 in0.0 mm
07:35 PM 42.6°F5.9°C 37.4°F3.0°C 77% 0.3 mph SW0.5 kmh SW 1.3 mph2.1 kmh 30.12 in1020.0 mb 0.00 in0.0 mm 0.00 in0.0 mm 0.00 in0.0 mm
07:40 PM 42.6°F5.9°C 37.4°F3.0°C 77% 0.8 mph WSW1.3 kmh WSW 2.7 mph4.3 kmh 30.12 in1020.0 mb 0.00 in0.0 mm 0.00 in0.0 mm 0.00 in0.0 mm
07:45 PM 42.6°F5.9°C 37.4°F3.0°C 77% 1.5 mph WSW2.4 kmh WSW 2.7 mph4.3 kmh 30.12 in1020.0 mb 0.00 in0.0 mm 0.00 in0.0 mm 0.00 in0.0 mm
07:50 PM 42.6°F5.9°C 37.4°F3.0°C 77% 0.7 mph WSW1.1 kmh WSW 2.2 mph3.5 kmh 30.12 in1020.0 mb 0.00 in0.0 mm 0.00 in0.0 mm 0.00 in0.0 mm
07:55 PM 42.4°F5.8°C 37.4°F3.0°C 77% 0.4 mph W0.6 kmh W 2.2 mph3.5 kmh 30.12 in1020.0 mb 0.00 in0.0 mm 0.00 in0.0 mm 0.00 in0.0 mm
08:00 PM 42.4°F5.8°C 37.4°F3.0°C 77% 0.7 mph WSW1.1 kmh WSW 1.6 mph2.6 kmh 30.12 in1020.0 mb 0.00 in0.0 mm 0.00 in0.0 mm 0.00 in0.0 mm
08:05 PM 42.4°F5.8°C 37.4°F3.0°C 77% 0.4 mph SW0.6 kmh SW 1.6 mph2.6 kmh 30.12 in1020.0 mb 0.00 in0.0 mm 0.00 in0.0 mm 0.00 in0.0 mm
08:10 PM 42.3°F5.7°C 35.6°F2.0°C 78% Calm Calm -- 30.12 in1020.0 mb 0.00 in0.0 mm 0.00 in0.0 mm 0.00 in0.0 mm
08:15 PM 42.3°F5.7°C 35.6°F2.0°C 78% Calm Calm -- 30.12 in1020.0 mb 0.00 in0.0 mm 0.00 in0.0 mm 0.00 in0.0 mm
08:20 PM 42.3°F5.7°C 35.6°F2.0°C 78% 0.1 mph WNW0.2 kmh WNW 1.6 mph2.6 kmh 30.09 in1019.0 mb 0.00 in0.0 mm 0.00 in0.0 mm 0.00 in0.0 mm
08:25 PM 42.4°F5.8°C 37.4°F3.0°C 78% 0.3 mph WSW0.5 kmh WSW 1.6 mph2.6 kmh 30.09 in1019.0 mb 0.00 in0.0 mm 0.00 in0.0 mm 0.00 in0.0 mm
08:30 PM 42.4°F5.8°C 37.4°F3.0°C 78% 0.4 mph WSW0.6 kmh WSW 1.3 mph2.1 kmh 30.09 in1019.0 mb 0.00 in0.0 mm 0.00 in0.0 mm 0.00 in0.0 mm
08:35 PM 42.6°F5.9°C 37.4°F3.0°C 77% 0.8 mph WSW1.3 kmh WSW 2.5 mph4.0 kmh 30.09 in1019.0 mb 0.00 in0.0 mm 0.00 in0.0 mm 0.00 in0.0 mm
08:40 PM 42.6°F5.9°C 37.4°F3.0°C 77% 0.6 mph WSW1.0 kmh WSW 2.5 mph4.0 kmh 30.09 in1019.0 mb 0.00 in0.0 mm 0.00 in0.0 mm 0.00 in0.0 mm
08:45 PM 42.4°F5.8°C 37.4°F3.0°C 77% 0.1 mph SW0.2 kmh SW 1.3 mph2.1 kmh 30.09 in1019.0 mb 0.00 in0.0 mm 0.00 in0.0 mm 0.00 in0.0 mm
08:50 PM 42.4°F5.8°C 37.4°F3.0°C 78% 0.2 mph SW0.3 kmh SW 1.3 mph2.1 kmh 30.09 in1019.0 mb 0.00 in0.0 mm 0.00 in0.0 mm 0.00 in0.0 mm
08:55 PM 42.4°F5.8°C 37.4°F3.0°C 78% 0.9 mph WSW1.4 kmh WSW 2.9 mph4.7 kmh 30.09 in1019.0 mb 0.00 in0.0 mm 0.00 in0.0 mm 0.00 in0.0 mm
09:00 PM 42.8°F6.0°C 37.4°F3.0°C 78% 2.3 mph WSW3.7 kmh WSW 4.0 mph6.4 kmh 30.09 in1019.0 mb 0.00 in0.0 mm 0.00 in0.0 mm 0.00 in0.0 mm
09:05 PM 42.8°F6.0°C 37.4°F3.0°C 78% 2.1 mph WSW3.4 kmh WSW 4.0 mph6.4 kmh 30.09 in1019.0 mb 0.00 in0.0 mm 0.00 in0.0 mm 0.00 in0.0 mm
09:10 PM 42.8°F6.0°C 37.4°F3.0°C 78% 1.4 mph WSW2.3 kmh WSW 2.5 mph4.0 kmh 30.09 in1019.0 mb 0.00 in0.0 mm 0.00 in0.0 mm 0.00 in0.0 mm
09:15 PM 42.8°F6.0°C 37.4°F3.0°C 78% 1.5 mph W2.4 kmh W 2.5 mph4.0 kmh 30.09 in1019.0 mb 0.00 in0.0 mm 0.00 in0.0 mm 0.00 in0.0 mm
09:20 PM 42.8°F6.0°C 37.4°F3.0°C 78% 1.3 mph WNW2.1 kmh WNW 2.2 mph3.5 kmh 30.09 in1019.0 mb 0.00 in0.0 mm 0.00 in0.0 mm 0.00 in0.0 mm
09:25 PM 42.8°F6.0°C 37.4°F3.0°C 78% 1.1 mph W1.8 kmh W 2.0 mph3.2 kmh 30.09 in1019.0 mb 0.00 in0.0 mm 0.00 in0.0 mm 0.00 in0.0 mm
09:30 PM 42.8°F6.0°C 37.4°F3.0°C 78% 0.9 mph WSW1.4 kmh WSW 1.6 mph2.6 kmh 30.09 in1019.0 mb 0.00 in0.0 mm 0.00 in0.0 mm 0.00 in0.0 mm
09:35 PM 42.8°F6.0°C 37.4°F3.0°C 78% 0.6 mph WSW1.0 kmh WSW 1.6 mph2.6 kmh 30.09 in1019.0 mb 0.00 in0.0 mm 0.00 in0.0 mm 0.00 in0.0 mm
09:40 PM 42.8°F6.0°C 37.4°F3.0°C 78% 0.1 mph SW0.2 kmh SW 1.6 mph2.6 kmh 30.09 in1019.0 mb 0.00 in0.0 mm 0.00 in0.0 mm 0.00 in0.0 mm
09:45 PM 42.8°F6.0°C 37.4°F3.0°C 78% 0.1 mph WSW0.2 kmh WSW 0.9 mph1.4 kmh 30.09 in1019.0 mb 0.00 in0.0 mm 0.00 in0.0 mm 0.00 in0.0 mm
09:50 PM 42.8°F6.0°C 37.4°F3.0°C 78% 0.1 mph WSW0.2 kmh WSW 0.9 mph1.4 kmh 30.07 in1018.3 mb 0.00 in0.0 mm 0.00 in0.0 mm 0.00 in0.0 mm
09:55 PM 42.6°F5.9°C 37.4°F3.0°C 78% Calm Calm -- 30.07 in1018.3 mb 0.00 in0.0 mm 0.00 in0.0 mm 0.00 in0.0 mm
10:00 PM 42.6°F5.9°C 37.4°F3.0°C 78% Calm Calm -- 30.07 in1018.3 mb 0.00 in0.0 mm 0.00 in0.0 mm 0.00 in0.0 mm
10:05 PM 42.6°F5.9°C 37.4°F3.0°C 78% Calm Calm -- 30.07 in1018.3 mb 0.00 in0.0 mm 0.00 in0.0 mm 0.00 in0.0 mm
10:10 PM 42.4°F5.8°C 37.4°F3.0°C 78% 0.1 mph WNW0.2 kmh WNW 1.1 mph1.8 kmh 30.07 in1018.3 mb 0.00 in0.0 mm 0.00 in0.0 mm 0.00 in0.0 mm
10:15 PM 42.6°F5.9°C 37.4°F3.0°C 78% 0.3 mph W0.5 kmh W 1.3 mph2.1 kmh 30.07 in1018.3 mb 0.00 in0.0 mm 0.00 in0.0 mm 0.00 in0.0 mm
10:20 PM 42.8°F6.0°C 37.4°F3.0°C 78% 0.6 mph WSW1.0 kmh WSW 1.3 mph2.1 kmh 30.07 in1018.3 mb 0.00 in0.0 mm 0.00 in0.0 mm 0.00 in0.0 mm
10:25 PM 42.8°F6.0°C 37.4°F3.0°C 79% 0.6 mph SW1.0 kmh SW 2.5 mph4.0 kmh 30.07 in1018.3 mb 0.00 in0.0 mm 0.00 in0.0 mm 0.00 in0.0 mm
10:30 PM 42.8°F6.0°C 37.4°F3.0°C 79% 1.0 mph SW1.6 kmh SW 2.5 mph4.0 kmh 30.07 in1018.3 mb 0.00 in0.0 mm 0.00 in0.0 mm 0.00 in0.0 mm
10:35 PM 42.8°F6.0°C 37.4°F3.0°C 79% 1.3 mph WSW2.1 kmh WSW 2.5 mph4.0 kmh 30.04 in1017.3 mb 0.00 in0.0 mm 0.00 in0.0 mm 0.00 in0.0 mm
10:40 PM 42.8°F6.0°C 37.4°F3.0°C 79% 1.6 mph WSW2.6 kmh WSW 2.9 mph4.7 kmh 30.04 in1017.3 mb 0.00 in0.0 mm 0.00 in0.0 mm 0.00 in0.0 mm
10:45 PM 43.0°F6.1°C 37.4°F3.0°C 79% 2.1 mph WSW3.4 kmh WSW 3.1 mph5.0 kmh 30.04 in1017.3 mb 0.00 in0.0 mm 0.00 in0.0 mm 0.00 in0.0 mm
10:50 PM 43.0°F6.1°C 37.4°F3.0°C 79% 2.0 mph WSW3.2 kmh WSW 3.1 mph5.0 kmh 30.04 in1017.3 mb 0.00 in0.0 mm 0.00 in0.0 mm 0.00 in0.0 mm
10:55 PM 42.8°F6.0°C 37.4°F3.0°C 79% 1.9 mph WSW3.1 kmh WSW 3.1 mph5.0 kmh 30.04 in1017.3 mb 0.00 in0.0 mm 0.00 in0.0 mm 0.00 in0.0 mm
11:00 PM 42.8°F6.0°C 37.4°F3.0°C 79% 1.7 mph WSW2.7 kmh WSW 2.9 mph4.7 kmh 30.04 in1017.3 mb 0.00 in0.0 mm 0.00 in0.0 mm 0.00 in0.0 mm
11:05 PM 42.4°F5.8°C 37.4°F3.0°C 80% 0.9 mph SW1.4 kmh SW 2.5 mph4.0 kmh 30.04 in1017.3 mb 0.00 in0.0 mm 0.00 in0.0 mm 0.00 in0.0 mm
11:10 PM 42.3°F5.7°C 37.4°F3.0°C 80% 0.4 mph SW0.6 kmh SW 1.6 mph2.6 kmh 30.04 in1017.3 mb 0.00 in0.0 mm 0.00 in0.0 mm 0.00 in0.0 mm
11:15 PM 42.4°F5.8°C 37.4°F3.0°C 80% 0.4 mph WSW0.6 kmh WSW 1.6 mph2.6 kmh 30.04 in1017.3 mb 0.00 in0.0 mm 0.00 in0.0 mm 0.00 in0.0 mm
11:20 PM 42.6°F5.9°C 37.4°F3.0°C 80% 0.5 mph WSW0.8 kmh WSW 1.6 mph2.6 kmh 30.04 in1017.3 mb 0.00 in0.0 mm 0.00 in0.0 mm 0.00 in0.0 mm
11:25 PM 42.8°F6.0°C 37.4°F3.0°C 80% 0.2 mph WSW0.3 kmh WSW 1.1 mph1.8 kmh 30.04 in1017.3 mb 0.00 in0.0 mm 0.00 in0.0 mm 0.00 in0.0 mm
11:30 PM 42.8°F6.0°C 37.4°F3.0°C 80% 0.7 mph SW1.1 kmh SW 1.3 mph2.1 kmh 30.04 in1017.3 mb 0.00 in0.0 mm 0.00 in0.0 mm 0.00 in0.0 mm
11:35 PM 42.8°F6.0°C 37.4°F3.0°C 80% 1.5 mph SW2.4 kmh SW 2.9 mph4.7 kmh 30.01 in1016.3 mb 0.00 in0.0 mm 0.00 in0.0 mm 0.00 in0.0 mm
11:40 PM 42.8°F6.0°C 37.4°F3.0°C 80% 2.4 mph SW3.9 kmh SW 3.6 mph5.8 kmh 30.01 in1016.3 mb 0.00 in0.0 mm 0.00 in0.0 mm 0.00 in0.0 mm
11:45 PM 42.8°F6.0°C 37.4°F3.0°C 80% 2.7 mph WSW4.3 kmh WSW 3.6 mph5.8 kmh 30.01 in1016.3 mb 0.00 in0.0 mm 0.00 in0.0 mm 0.00 in0.0 mm
11:50 PM 43.0°F6.1°C 37.4°F3.0°C 81% 2.9 mph WSW4.7 kmh WSW 3.6 mph5.8 kmh 30.01 in1016.3 mb 0.00 in0.0 mm 0.00 in0.0 mm 0.00 in0.0 mm
11:55 PM 43.2°F6.2°C 37.4°F3.0°C 81% 3.4 mph WSW5.5 kmh WSW 4.9 mph7.9 kmh 30.01 in1016.3 mb 0.00 in0.0 mm 0.00 in0.0 mm 0.00 in0.0 mm